UAL2138 KORF-KIAD
Flight info
| Callsign | UAL2138 |
|---|---|
| Flight time | 0h 38m |
| Altitude | 22000 |
| Route | NUTIY1 THHMP CAVLR6 |
| Aircraft | A319/M-SDE3FGHIRWY/LB1 |
Departure
| Time | 2026-04-25 15:40 |
|---|---|
| Airport | Norfolk International Airport (KORF) |
Arrival
| Time | 2026-04-25 16:19 |
|---|---|
| Airport | Washington Dulles International Airport (KIAD) |
| Time | Latitude | Longitude | Altitude | Speed | Heading |
|---|---|---|---|---|---|
| 2026-04-25 15:12 | 36.89601 | -76.20176 | 3 ft | 0 kts | 354° |
| 2026-04-25 15:32 | 36.89581 | -76.20174 | 5 ft | 4 kts | 352° |
| 2026-04-25 15:32 | 36.89554 | -76.20168 | 5 ft | 4 kts | 346° |
| 2026-04-25 15:32 | 36.89530 | -76.20157 | 6 ft | 4 kts | 315° |
| 2026-04-25 15:33 | 36.89526 | -76.20140 | 6 ft | 0 kts | 219° |
| 2026-04-25 15:36 | 36.89525 | -76.20140 | 6 ft | 1 kts | 219° |
| 2026-04-25 15:36 | 36.89494 | -76.20172 | 4 ft | 11 kts | 219° |
| 2026-04-25 15:37 | 36.89409 | -76.20253 | 5 ft | 20 kts | 217° |
| 2026-04-25 15:37 | 36.89294 | -76.20363 | 4 ft | 22 kts | 217° |
| 2026-04-25 15:37 | 36.89169 | -76.20476 | 6 ft | 23 kts | 212° |
| 2026-04-25 15:37 | 36.89022 | -76.20590 | 4 ft | 25 kts | 212° |
| 2026-04-25 15:38 | 36.88875 | -76.20724 | 3 ft | 27 kts | 218° |
| 2026-04-25 15:38 | 36.88729 | -76.20865 | 3 ft | 21 kts | 218° |
| 2026-04-25 15:38 | 36.88657 | -76.20897 | 3 ft | 0 kts | 168° |
| 2026-04-25 15:39 | 36.88650 | -76.20894 | 3 ft | 3 kts | 165° |
| 2026-04-25 15:39 | 36.88618 | -76.20852 | 2 ft | 10 kts | 111° |
| 2026-04-25 15:39 | 36.88651 | -76.20769 | 2 ft | 13 kts | 39° |
| 2026-04-25 15:39 | 36.88837 | -76.20588 | 6 ft | 63 kts | 38° |
| 2026-04-25 15:40 | 36.89339 | -76.20104 | 9 ft | 118 kts | 38° |
| 2026-04-25 15:40 | 36.89571 | -76.19881 | 9 ft | 136 kts | 38° |
| 2026-04-25 15:40 | 36.90709 | -76.18776 | 494 ft | 157 kts | 37° |
| 2026-04-25 15:40 | 36.91887 | -76.17716 | 1277 ft | 157 kts | 37° |
| 2026-04-25 15:41 | 36.92785 | -76.16920 | 1798 ft | 162 kts | 35° |
| 2026-04-25 15:41 | 36.93761 | -76.16050 | 2105 ft | 184 kts | 34° |
| 2026-04-25 15:41 | 36.94863 | -76.15062 | 2361 ft | 207 kts | 34° |
| 2026-04-25 15:41 | 36.96121 | -76.13967 | 2696 ft | 233 kts | 28° |
| 2026-04-25 15:42 | 36.97743 | -76.13461 | 3103 ft | 254 kts | 354° |
| 2026-04-25 15:42 | 36.99414 | -76.14233 | 3715 ft | 263 kts | 319° |
| 2026-04-25 15:42 | 37.00224 | -76.15416 | 4292 ft | 263 kts | 295° |
| 2026-04-25 15:42 | 37.00591 | -76.17623 | 5191 ft | 263 kts | 262° |
| 2026-04-25 15:43 | 37.00203 | -76.19872 | 6107 ft | 266 kts | 256° |
| 2026-04-25 15:43 | 36.99809 | -76.22147 | 6993 ft | 269 kts | 257° |
| 2026-04-25 15:43 | 36.99445 | -76.24453 | 7883 ft | 272 kts | 258° |
| 2026-04-25 15:43 | 36.99085 | -76.26792 | 8771 ft | 275 kts | 258° |
| 2026-04-25 15:44 | 36.98718 | -76.29154 | 9651 ft | 278 kts | 258° |
| 2026-04-25 15:44 | 36.98342 | -76.31551 | 10371 ft | 287 kts | 258° |
| 2026-04-25 15:44 | 36.97933 | -76.34102 | 10629 ft | 311 kts | 258° |
| 2026-04-25 15:44 | 36.97521 | -76.36659 | 11052 ft | 323 kts | 258° |
| 2026-04-25 15:45 | 36.97074 | -76.39437 | 11756 ft | 328 kts | 258° |
| 2026-04-25 15:45 | 36.96621 | -76.42240 | 12533 ft | 331 kts | 259° |
| 2026-04-25 15:45 | 36.96164 | -76.45070 | 13306 ft | 333 kts | 259° |
| 2026-04-25 15:45 | 36.95852 | -76.46992 | 13803 ft | 335 kts | 259° |
| 2026-04-25 15:46 | 36.95315 | -76.50856 | 14582 ft | 340 kts | 267° |
| 2026-04-25 15:46 | 36.95441 | -76.53788 | 15168 ft | 344 kts | 280° |
| 2026-04-25 15:46 | 36.96148 | -76.56667 | 15737 ft | 349 kts | 294° |
| 2026-04-25 15:46 | 36.97405 | -76.59285 | 16327 ft | 355 kts | 307° |
| 2026-04-25 15:47 | 36.98992 | -76.61673 | 16925 ft | 359 kts | 309° |
| 2026-04-25 15:47 | 37.00608 | -76.64075 | 17522 ft | 363 kts | 309° |
| 2026-04-25 15:47 | 37.02242 | -76.66510 | 18118 ft | 367 kts | 309° |
| 2026-04-25 15:47 | 37.03887 | -76.68972 | 18638 ft | 371 kts | 309° |
| 2026-04-25 15:48 | 37.05546 | -76.71460 | 19156 ft | 374 kts | 309° |
| 2026-04-25 15:48 | 37.07196 | -76.73939 | 19687 ft | 377 kts | 309° |
| 2026-04-25 15:48 | 37.08904 | -76.76510 | 20225 ft | 380 kts | 309° |
| 2026-04-25 15:48 | 37.10589 | -76.79047 | 20758 ft | 384 kts | 309° |
| 2026-04-25 15:49 | 37.12341 | -76.81681 | 21290 ft | 387 kts | 309° |
| 2026-04-25 15:49 | 37.14076 | -76.84287 | 21654 ft | 395 kts | 309° |
| 2026-04-25 15:49 | 37.15840 | -76.86944 | 21806 ft | 406 kts | 308° |
| 2026-04-25 15:49 | 37.17672 | -76.89711 | 21894 ft | 419 kts | 308° |
| 2026-04-25 15:50 | 37.19559 | -76.92565 | 21903 ft | 430 kts | 308° |
| 2026-04-25 15:50 | 37.21483 | -76.95476 | 21906 ft | 434 kts | 308° |
| 2026-04-25 15:50 | 37.23411 | -76.98389 | 21914 ft | 435 kts | 308° |
| 2026-04-25 15:50 | 37.25342 | -77.01305 | 21902 ft | 434 kts | 308° |
| 2026-04-25 15:51 | 37.27273 | -77.04224 | 21910 ft | 434 kts | 308° |
| 2026-04-25 15:51 | 37.28548 | -77.06158 | 21901 ft | 434 kts | 308° |
| 2026-04-25 15:51 | 37.31123 | -77.10068 | 21916 ft | 434 kts | 308° |
| 2026-04-25 15:51 | 37.33059 | -77.12981 | 21914 ft | 435 kts | 310° |
| 2026-04-25 15:52 | 37.35235 | -77.15622 | 21919 ft | 436 kts | 315° |
| 2026-04-25 15:52 | 37.37457 | -77.18214 | 21922 ft | 436 kts | 315° |
| 2026-04-25 15:52 | 37.39678 | -77.20809 | 21924 ft | 436 kts | 315° |
| 2026-04-25 15:52 | 37.41898 | -77.23402 | 21923 ft | 436 kts | 315° |
| 2026-04-25 15:53 | 37.44120 | -77.25999 | 21921 ft | 436 kts | 315° |
| 2026-04-25 15:53 | 37.46338 | -77.28593 | 21918 ft | 436 kts | 315° |
| 2026-04-25 15:53 | 37.48616 | -77.31117 | 21914 ft | 437 kts | 321° |
| 2026-04-25 15:53 | 37.51236 | -77.33067 | 21928 ft | 440 kts | 333° |
| 2026-04-25 15:54 | 37.54037 | -77.34628 | 21880 ft | 439 kts | 334° |
| 2026-04-25 15:54 | 37.56787 | -77.36154 | 21702 ft | 423 kts | 334° |
| 2026-04-25 15:54 | 37.59429 | -77.37626 | 21571 ft | 407 kts | 334° |
| 2026-04-25 15:54 | 37.61977 | -77.39054 | 21341 ft | 396 kts | 333° |
| 2026-04-25 15:55 | 37.64464 | -77.40447 | 21091 ft | 386 kts | 334° |
| 2026-04-25 15:55 | 37.66892 | -77.41805 | 20803 ft | 377 kts | 334° |
| 2026-04-25 15:55 | 37.69279 | -77.43143 | 20348 ft | 374 kts | 334° |
| 2026-04-25 15:55 | 37.71589 | -77.44440 | 19892 ft | 370 kts | 334° |
| 2026-04-25 15:56 | 37.73930 | -77.45758 | 19442 ft | 367 kts | 334° |
| 2026-04-25 15:56 | 37.76248 | -77.47063 | 18984 ft | 363 kts | 334° |
| 2026-04-25 15:56 | 37.78549 | -77.48359 | 18526 ft | 360 kts | 334° |
| 2026-04-25 15:56 | 37.80823 | -77.49642 | 18091 ft | 356 kts | 334° |
| 2026-04-25 15:57 | 37.83101 | -77.50923 | 17615 ft | 351 kts | 334° |
| 2026-04-25 15:57 | 37.85320 | -77.52171 | 17164 ft | 347 kts | 334° |
| 2026-04-25 15:57 | 37.87511 | -77.53405 | 16721 ft | 343 kts | 334° |
| 2026-04-25 15:57 | 37.89678 | -77.54623 | 16278 ft | 339 kts | 334° |
| 2026-04-25 15:58 | 37.91818 | -77.55827 | 15851 ft | 335 kts | 334° |
| 2026-04-25 15:58 | 37.93942 | -77.57016 | 15399 ft | 333 kts | 335° |
| 2026-04-25 15:58 | 37.96163 | -77.57854 | 14955 ft | 334 kts | 346° |
| 2026-04-25 15:58 | 37.98438 | -77.58412 | 14513 ft | 332 kts | 346° |
| 2026-04-25 15:59 | 38.00702 | -77.58969 | 14069 ft | 331 kts | 346° |
| 2026-04-25 15:59 | 38.02964 | -77.59484 | 13616 ft | 331 kts | 351° |
| 2026-04-25 15:59 | 38.05268 | -77.59464 | 13159 ft | 333 kts | 5° |
| 2026-04-25 15:59 | 38.07509 | -77.58745 | 12720 ft | 334 kts | 19° |
| 2026-04-25 16:00 | 38.09606 | -77.57487 | 12285 ft | 333 kts | 24° |
| 2026-04-25 16:00 | 38.10307 | -77.57038 | 12140 ft | 335 kts | 24° |
| 2026-04-25 16:00 | 38.13760 | -77.54831 | 11419 ft | 333 kts | 24° |
| 2026-04-25 16:00 | 38.15828 | -77.53519 | 10995 ft | 331 kts | 24° |
| 2026-04-25 16:01 | 38.17891 | -77.52210 | 10543 ft | 332 kts | 24° |
| 2026-04-25 16:01 | 38.19950 | -77.50900 | 10202 ft | 328 kts | 24° |
| 2026-04-25 16:01 | 38.21952 | -77.49619 | 10080 ft | 316 kts | 25° |
| 2026-04-25 16:01 | 38.23909 | -77.48430 | 9902 ft | 308 kts | 19° |
| 2026-04-25 16:02 | 38.25955 | -77.47645 | 9743 ft | 307 kts | 13° |
| 2026-04-25 16:02 | 38.27977 | -77.46933 | 9509 ft | 305 kts | 13° |
| 2026-04-25 16:02 | 38.29975 | -77.46226 | 9281 ft | 304 kts | 13° |
| 2026-04-25 16:02 | 38.32006 | -77.45509 | 9047 ft | 303 kts | 13° |
| 2026-04-25 16:03 | 38.34032 | -77.44796 | 8832 ft | 301 kts | 13° |
| 2026-04-25 16:03 | 38.36062 | -77.44079 | 8600 ft | 300 kts | 13° |
| 2026-04-25 16:03 | 38.38088 | -77.43363 | 8369 ft | 299 kts | 13° |
| 2026-04-25 16:03 | 38.40110 | -77.42647 | 8135 ft | 297 kts | 13° |
| 2026-04-25 16:04 | 38.42073 | -77.41954 | 7911 ft | 296 kts | 13° |
| 2026-04-25 16:04 | 38.44050 | -77.41255 | 7683 ft | 295 kts | 13° |
| 2026-04-25 16:04 | 38.46021 | -77.40554 | 7458 ft | 293 kts | 13° |
| 2026-04-25 16:04 | 38.47979 | -77.39857 | 7241 ft | 291 kts | 13° |
| 2026-04-25 16:05 | 38.49955 | -77.39154 | 7015 ft | 290 kts | 13° |
| 2026-04-25 16:05 | 38.51873 | -77.38503 | 6790 ft | 289 kts | 12° |
| 2026-04-25 16:05 | 38.55777 | -77.37268 | 6349 ft | 286 kts | 12° |
| 2026-04-25 16:06 | 38.57707 | -77.36669 | 6112 ft | 284 kts | 11° |
| 2026-04-25 16:06 | 38.59655 | -77.36345 | 5909 ft | 281 kts | 359° |
| 2026-04-25 16:06 | 38.60946 | -77.36313 | 5766 ft | 280 kts | 359° |
| 2026-04-25 16:06 | 38.63543 | -77.36226 | 5497 ft | 279 kts | 359° |
| 2026-04-25 16:07 | 38.65478 | -77.36152 | 5293 ft | 278 kts | 360° |
| 2026-04-25 16:07 | 38.66103 | -77.36128 | 5221 ft | 277 kts | 359° |
| 2026-04-25 16:07 | 38.69312 | -77.36004 | 4884 ft | 274 kts | 359° |
| 2026-04-25 16:07 | 38.71210 | -77.35933 | 4674 ft | 272 kts | 359° |
| 2026-04-25 16:08 | 38.73097 | -77.35865 | 4477 ft | 271 kts | 359° |
| 2026-04-25 16:08 | 38.74987 | -77.35797 | 4281 ft | 272 kts | 360° |
| 2026-04-25 16:08 | 38.76875 | -77.35728 | 4098 ft | 272 kts | 360° |
| 2026-04-25 16:08 | 38.78703 | -77.35660 | 3995 ft | 271 kts | 0° |
| 2026-04-25 16:09 | 38.80587 | -77.35590 | 4004 ft | 272 kts | 360° |
| 2026-04-25 16:09 | 38.82482 | -77.35522 | 4004 ft | 272 kts | 0° |
| 2026-04-25 16:09 | 38.84372 | -77.35456 | 4006 ft | 273 kts | 359° |
| 2026-04-25 16:09 | 38.86273 | -77.35391 | 3987 ft | 273 kts | 0° |
| 2026-04-25 16:10 | 38.88136 | -77.35325 | 3842 ft | 260 kts | 0° |
| 2026-04-25 16:10 | 38.89881 | -77.35257 | 3708 ft | 242 kts | 0° |
| 2026-04-25 16:10 | 38.91520 | -77.35193 | 3436 ft | 232 kts | 2° |
| 2026-04-25 16:10 | 38.93136 | -77.35132 | 3119 ft | 233 kts | 2° |
| 2026-04-25 16:11 | 38.94747 | -77.35075 | 2998 ft | 230 kts | 3° |
| 2026-04-25 16:11 | 38.96350 | -77.35017 | 3003 ft | 232 kts | 3° |
| 2026-04-25 16:11 | 38.97386 | -77.34979 | 3009 ft | 233 kts | 3° |
| 2026-04-25 16:11 | 38.99531 | -77.34899 | 3007 ft | 232 kts | 2° |
| 2026-04-25 16:12 | 39.01149 | -77.34840 | 3009 ft | 233 kts | 2° |
| 2026-04-25 16:12 | 39.02245 | -77.34801 | 3007 ft | 234 kts | 3° |
| 2026-04-25 16:12 | 39.04392 | -77.34725 | 3014 ft | 233 kts | 2° |
| 2026-04-25 16:12 | 39.04940 | -77.34706 | 3010 ft | 234 kts | 2° |
| 2026-04-25 16:13 | 39.07642 | -77.34611 | 3016 ft | 233 kts | 2° |
| 2026-04-25 16:13 | 39.09256 | -77.34554 | 3019 ft | 233 kts | 2° |
| 2026-04-25 16:13 | 39.10351 | -77.34514 | 3027 ft | 232 kts | 2° |
| 2026-04-25 16:13 | 39.11961 | -77.34494 | 3013 ft | 232 kts | 355° |
| 2026-04-25 16:14 | 39.13450 | -77.35206 | 2805 ft | 230 kts | 323° |
| 2026-04-25 16:14 | 39.14404 | -77.36827 | 2461 ft | 230 kts | 289° |
| 2026-04-25 16:14 | 39.14516 | -77.38841 | 2096 ft | 227 kts | 256° |
| 2026-04-25 16:14 | 39.13922 | -77.40685 | 2010 ft | 223 kts | 227° |
| 2026-04-25 16:15 | 39.12756 | -77.41944 | 2018 ft | 212 kts | 211° |
| 2026-04-25 16:15 | 39.11568 | -77.42925 | 2060 ft | 196 kts | 204° |
| 2026-04-25 16:15 | 39.10302 | -77.43369 | 2025 ft | 185 kts | 180° |
| 2026-04-25 16:15 | 39.09009 | -77.43396 | 2024 ft | 183 kts | 176° |
| 2026-04-25 16:16 | 39.07761 | -77.43414 | 2028 ft | 180 kts | 177° |
| 2026-04-25 16:16 | 39.06506 | -77.43433 | 2024 ft | 180 kts | 178° |
| 2026-04-25 16:16 | 39.05245 | -77.43451 | 2028 ft | 181 kts | 178° |
| 2026-04-25 16:16 | 39.03990 | -77.43471 | 1932 ft | 178 kts | 177° |
| 2026-04-25 16:17 | 39.02794 | -77.43490 | 1757 ft | 166 kts | 175° |
| 2026-04-25 16:17 | 39.01697 | -77.43508 | 1565 ft | 148 kts | 177° |
| 2026-04-25 16:17 | 39.00714 | -77.43523 | 1374 ft | 138 kts | 176° |
| 2026-04-25 16:17 | 38.99772 | -77.43536 | 1192 ft | 134 kts | 175° |
| 2026-04-25 16:18 | 38.98846 | -77.43549 | 1009 ft | 132 kts | 174° |
| 2026-04-25 16:18 | 38.98537 | -77.43555 | 924 ft | 132 kts | 175° |
| 2026-04-25 16:18 | 38.96998 | -77.43579 | 602 ft | 133 kts | 177° |
| 2026-04-25 16:18 | 38.96102 | -77.43590 | 439 ft | 130 kts | 175° |
| 2026-04-25 16:19 | 38.95202 | -77.43607 | 304 ft | 122 kts | 179° |
| 2026-04-25 16:19 | 38.94484 | -77.43615 | 300 ft | 80 kts | 180° |
| 2026-04-25 16:19 | 38.94093 | -77.43623 | 304 ft | 34 kts | 184° |
| 2026-04-25 16:20 | 38.93815 | -77.43781 | 300 ft | 1 kts | 212° |
| 2026-04-25 16:20 | 38.93795 | -77.43796 | 300 ft | 5 kts | 212° |
| 2026-04-25 16:20 | 38.93754 | -77.43970 | 303 ft | 15 kts | 315° |
| 2026-04-25 16:21 | 38.93866 | -77.43986 | 300 ft | 18 kts | 0° |
| 2026-04-25 16:21 | 38.93996 | -77.43984 | 300 ft | 20 kts | 0° |
| 2026-04-25 16:21 | 38.94143 | -77.43982 | 300 ft | 22 kts | 1° |
| 2026-04-25 16:21 | 38.94304 | -77.43978 | 300 ft | 22 kts | 0° |
| 2026-04-25 16:22 | 38.94402 | -77.44021 | 302 ft | 14 kts | 292° |
| 2026-04-25 16:22 | 38.94407 | -77.44121 | 300 ft | 11 kts | 271° |
| 2026-04-25 16:22 | 38.94407 | -77.44225 | 300 ft | 13 kts | 269° |
| 2026-04-25 16:22 | 38.94405 | -77.44345 | 300 ft | 14 kts | 271° |
| 2026-04-25 16:23 | 38.94408 | -77.44483 | 300 ft | 16 kts | 271° |
| 2026-04-25 16:23 | 38.94410 | -77.44636 | 300 ft | 18 kts | 271° |
| 2026-04-25 16:23 | 38.94412 | -77.44806 | 303 ft | 20 kts | 270° |
| 2026-04-25 16:23 | 38.94413 | -77.44971 | 300 ft | 16 kts | 270° |
| 2026-04-25 16:24 | 38.94443 | -77.45047 | 300 ft | 9 kts | 343° |
| 2026-04-25 16:24 | 38.94488 | -77.45048 | 300 ft | 3 kts | 359° |
| 2026-04-25 16:24 | 38.94499 | -77.45048 | 300 ft | 1 kts | 360° |
| 2026-04-25 16:24 | 38.94505 | -77.45048 | 300 ft | 0 kts | 359° |